Ruskin, Florida
Current Conditions -  °F | °C
As of 12:58 AM on Saturday 25 Oct 2014 (Local Time) from KMCF Reporting Station
Clear Clear  
Wind Chill: 63°   Ceiling: Unl
Heat Index: 63°   Visibility: 10mi
Dew Point: 60°   Wind: 7mph
Humidity: 91%   Direction: 50°NE
Pressure: 29.97"   Gusts: NA
Location:  27.72°N, 82.43°W
Report Text: KMCF 250458Z AUTO 05006KT 10SM CLR 17/16 A2997 RMK AO2 SLP152 T01710156 402790154
Loading
Personal Weather Stations






























Interactive Weather Map
Tropical Storm Tracking
New forecast layout! Learn more

10-Day Weather Forecast

Advertisements
Track Severe Weather on mobile